createdAt,value
2022-08-01T00:01:55.090Z,98542.91
2022-08-01T00:04:57.775Z,98543.31
2022-08-01T00:08:01.781Z,98557.19
2022-08-01T00:11:04.713Z,98548.50
2022-08-01T00:14:07.413Z,98544.53
2022-08-01T00:17:10.166Z,98549.31
2022-08-01T00:20:14.763Z,98547.75
2022-08-01T00:23:18.925Z,98547.75
2022-08-01T00:26:21.738Z,98561.66
2022-08-01T00:30:12.432Z,98558.88
2022-08-01T00:32:47.127Z,98564.03
2022-08-01T00:35:49.798Z,98559.69
2022-08-01T00:38:53.841Z,98564.84
2022-08-01T00:42:01.821Z,98562.88
2022-08-01T00:45:04.690Z,98572.03
2022-08-01T00:48:07.506Z,98565.63
2022-08-01T00:51:10.446Z,98560.88
2022-08-01T00:54:16.508Z,98569.63
2022-08-01T00:58:03.225Z,98565.66
2022-08-01T01:00:53.977Z,98572.03
2022-08-01T01:03:59.151Z,98572.03
2022-08-01T01:07:09.194Z,98580.38
2022-08-01T01:10:18.709Z,98574.44
2022-08-01T01:13:26.781Z,98572.88
2022-08-01T01:16:31.103Z,98578.81
2022-08-01T01:19:35.953Z,98581.59
2022-08-01T01:22:49.826Z,98581.22
2022-08-01T01:26:10.365Z,98583.59
2022-08-01T01:29:16.695Z,98583.19
2022-08-01T01:32:22.108Z,98583.59
2022-08-01T01:35:36.718Z,98583.59
2022-08-01T01:38:43.772Z,98578.44
2022-08-01T01:41:47.789Z,98583.19
2022-08-01T01:44:52.119Z,98584.38
2022-08-01T01:47:55.104Z,98590.75
2022-08-01T01:50:58.885Z,98598.31
2022-08-01T01:54:01.718Z,98596.31
2022-08-01T01:57:06.015Z,98597.50
2022-08-01T02:00:11.380Z,98592.72
2022-08-01T02:03:15.734Z,98591.13
2022-08-01T02:06:18.864Z,98583.19
2022-08-01T02:09:22.054Z,98593.13
2022-08-01T02:12:25.889Z,98587.16
2022-08-01T02:15:31.639Z,98589.16
2022-08-01T02:18:34.577Z,98591.91
2022-08-01T02:21:42.374Z,98591.09
2022-08-01T02:24:52.532Z,98599.44
2022-08-01T02:28:01.587Z,98597.00
2022-08-01T02:31:10.492Z,98597.41
2022-08-01T02:34:15.590Z,98603.78
2022-08-01T02:37:19.200Z,98605.75
2022-08-01T02:40:22.631Z,98611.31
2022-08-01T02:43:27.252Z,98605.75
2022-08-01T02:46:41.028Z,98609.31
2022-08-01T02:49:46.289Z,98610.47
2022-08-01T02:52:50.847Z,98617.59
2022-08-01T02:55:54.923Z,98618.41
2022-08-01T02:58:57.951Z,98623.94
2022-08-01T03:02:05.425Z,98617.19
2022-08-01T03:05:10.247Z,98619.16
2022-08-01T03:08:15.064Z,98619.53
2022-08-01T03:11:18.200Z,98619.13
2022-08-01T03:14:20.653Z,98611.59
2022-08-01T03:17:27.708Z,98612.75
2022-08-01T03:20:32.079Z,98621.91
2022-08-01T03:23:37.972Z,98618.28
2022-08-01T03:26:41.743Z,98623.41
2022-08-01T03:29:45.705Z,98619.50
2022-08-01T03:32:49.852Z,98614.69
2022-08-01T03:35:55.764Z,98624.97
2022-08-01T03:39:00.457Z,98619.00
2022-08-01T03:42:11.778Z,98626.16
2022-08-01T03:45:21.545Z,98629.31
2022-08-01T03:48:30.803Z,98622.97
2022-08-01T03:51:34.023Z,98632.91
2022-08-01T03:54:38.610Z,98630.94
2022-08-01T03:57:42.071Z,98625.03
2022-08-01T04:00:45.432Z,98636.16
2022-08-01T04:03:49.622Z,98625.84
2022-08-01T04:06:54.983Z,98625.88
2022-08-01T04:09:57.802Z,98625.44
2022-08-01T04:13:00.470Z,98633.38
2022-08-01T04:16:03.379Z,98632.59
2022-08-01T04:19:08.539Z,98629.88
2022-08-01T04:22:12.443Z,98639.03
2022-08-01T04:25:19.091Z,98634.69
2022-08-01T04:28:23.307Z,98640.22
2022-08-01T04:31:27.310Z,98638.63
2022-08-01T04:34:33.018Z,98646.19
2022-08-01T04:37:37.922Z,98648.53
2022-08-01T04:40:42.373Z,98645.78
2022-08-01T04:43:45.494Z,98652.94
2022-08-01T04:46:49.367Z,98649.31
2022-08-01T04:49:53.671Z,98663.25
2022-08-01T04:52:56.993Z,98657.34
2022-08-01T04:55:59.775Z,98645.03
2022-08-01T04:59:20.457Z,98647.03
2022-08-01T05:02:23.405Z,98640.72
2022-08-01T05:05:28.234Z,98636.38
2022-08-01T05:08:30.887Z,98635.56
2022-08-01T05:11:33.730Z,98632.78
2022-08-01T05:14:36.919Z,98631.22
2022-08-01T05:17:39.714Z,98633.66
2022-08-01T05:20:44.342Z,98630.88
2022-08-01T05:23:47.090Z,98637.63
2022-08-01T05:26:49.999Z,98636.03
2022-08-01T05:29:52.905Z,98638.00
2022-08-01T05:32:55.554Z,98636.41
2022-08-01T05:36:01.669Z,98631.59
2022-08-01T05:39:04.545Z,98636.41
2022-08-01T05:42:08.091Z,98647.13
2022-08-01T05:45:12.144Z,98651.88
2022-08-01T05:48:14.851Z,98658.63
2022-08-01T05:51:18.829Z,98653.81
2022-08-01T05:54:21.636Z,98656.59
2022-08-01T05:57:24.658Z,98666.91
2022-08-01T06:00:27.220Z,98660.50
2022-08-01T06:03:32.169Z,98661.25
2022-08-01T06:06:39.290Z,98648.50
2022-08-01T06:09:42.266Z,98651.97
2022-08-01T06:12:44.902Z,98658.66
2022-08-01T06:15:47.722Z,98666.25
2022-08-01T06:18:53.821Z,98661.38
2022-08-01T06:22:00.383Z,98668.06
2022-08-01T06:25:03.332Z,98664.44
2022-08-01T06:28:06.292Z,98660.59
2022-08-01T06:31:11.153Z,98668.53
2022-08-01T06:34:14.191Z,98659.34
2022-08-01T06:37:18.129Z,98663.66
2022-08-01T06:40:21.227Z,98665.75
2022-08-01T06:43:24.347Z,98657.97
2022-08-01T06:46:30.260Z,98667.72
2022-08-01T06:49:34.902Z,98671.75
2022-08-01T06:52:39.207Z,98659.22
2022-08-01T06:55:42.079Z,98666.88
2022-08-01T06:58:45.098Z,98667.84
2022-08-01T07:01:47.935Z,98669.16
2022-08-01T07:04:51.065Z,98662.78
2022-08-01T07:07:55.382Z,98664.03
2022-08-01T07:11:00.214Z,98663.53
2022-08-01T07:14:04.131Z,98667.25
2022-08-01T07:17:07.175Z,98654.66
2022-08-01T07:20:12.282Z,98659.22
2022-08-01T07:23:22.698Z,98666.81
2022-08-01T07:26:33.255Z,98657.63
2022-08-01T07:29:35.875Z,98670.09
2022-08-01T07:32:38.488Z,98668.91
2022-08-01T07:35:42.188Z,98662.59
2022-08-01T07:38:46.169Z,98655.72
2022-08-01T07:42:06.118Z,98657.94
2022-08-01T07:45:11.534Z,98653.13
2022-08-01T07:48:14.689Z,98656.06
2022-08-01T07:51:17.485Z,98649.00
2022-08-01T07:54:21.576Z,98658.22
2022-08-01T07:57:36.682Z,98641.22
2022-08-01T08:00:39.492Z,98652.69
2022-08-01T08:03:41.978Z,98655.50
2022-08-01T08:06:45.621Z,98657.38
2022-08-01T08:09:51.218Z,98649.75
2022-08-01T08:12:54.029Z,98651.66
2022-08-01T08:15:56.793Z,98644.69
2022-08-01T08:19:00.900Z,98647.00
2022-08-01T08:22:03.768Z,98640.75
2022-08-01T08:25:09.281Z,98649.59
2022-08-01T08:28:11.848Z,98650.09
2022-08-01T08:31:25.214Z,98655.53
2022-08-01T08:34:37.388Z,98647.03
2022-08-01T08:37:47.355Z,98648.94
2022-08-01T08:40:52.320Z,98650.41
2022-08-01T08:43:55.463Z,98651.25
2022-08-01T08:47:00.181Z,98643.75
2022-08-01T08:50:04.746Z,98643.81
2022-08-01T08:53:07.736Z,98644.38
2022-08-01T08:56:12.602Z,98654.06
2022-08-01T08:59:15.979Z,98648.03
2022-08-01T09:02:18.831Z,98654.00
2022-08-01T09:05:26.530Z,98651.56
2022-08-01T09:08:42.316Z,98658.25
2022-08-01T09:11:56.959Z,98650.16
2022-08-01T09:15:00.611Z,98652.09
2022-08-01T09:18:03.133Z,98652.94
2022-08-01T09:21:25.219Z,98648.31
2022-08-01T09:24:30.855Z,98648.47
2022-08-01T09:27:36.157Z,98646.25
2022-08-01T09:30:40.963Z,98655.25
2022-08-01T09:33:54.449Z,98651.03
2022-08-01T09:36:59.667Z,98653.63
2022-08-01T09:40:03.469Z,98659.50
2022-08-01T09:43:14.975Z,98654.38
2022-08-01T09:46:18.293Z,98660.66
2022-08-01T09:49:49.719Z,98661.34
2022-08-01T09:52:57.212Z,98661.28
2022-08-01T09:56:11.724Z,98658.81
2022-08-01T09:59:17.466Z,98655.69
2022-08-01T10:02:30.492Z,98650.50
2022-08-01T10:05:37.136Z,98660.94
2022-08-01T10:08:48.624Z,98664.28
2022-08-01T10:11:52.650Z,98647.13
2022-08-01T10:14:58.499Z,98656.06
2022-08-01T10:18:03.766Z,98644.19
2022-08-01T10:21:08.754Z,98646.25
2022-08-01T10:24:14.933Z,98646.56
2022-08-01T10:27:36.362Z,98641.75
2022-08-01T10:30:43.722Z,98635.63
2022-08-01T10:33:50.689Z,98633.44
2022-08-01T10:36:56.195Z,98630.53
2022-08-01T10:40:27.324Z,98630.34
2022-08-01T10:43:22.394Z,98620.13
2022-08-01T10:46:26.664Z,98620.50
2022-08-01T10:49:32.428Z,98639.16
2022-08-01T10:52:39.447Z,98638.19
2022-08-01T10:55:49.873Z,98633.41
2022-08-01T10:59:06.056Z,98617.16
2022-08-01T11:02:11.034Z,98616.78
2022-08-01T11:05:20.578Z,98617.31
2022-08-01T11:08:27.060Z,98612.97
2022-08-01T11:11:30.089Z,98613.38
2022-08-01T11:15:17.006Z,98612.03
2022-08-01T11:18:33.772Z,98616.94
2022-08-01T11:22:03.459Z,98598.28
2022-08-01T11:25:06.686Z,98602.00
2022-08-01T11:28:29.146Z,98590.88
2022-08-01T11:31:36.985Z,98589.47
2022-08-01T11:34:56.276Z,98589.22
2022-08-01T11:38:00.305Z,98583.19
2022-08-01T11:41:12.361Z,98577.78
2022-08-01T11:44:24.868Z,98577.78
2022-08-01T11:47:47.576Z,98578.06
2022-08-01T11:50:55.324Z,98570.69
2022-08-01T11:53:59.792Z,98567.75
2022-08-01T11:57:05.151Z,98570.38
2022-08-01T12:00:15.381Z,98572.66
2022-08-01T12:03:32.994Z,98565.91
2022-08-01T12:06:38.254Z,98566.94
2022-08-01T12:09:44.351Z,98556.09
2022-08-01T12:12:49.353Z,98556.06
2022-08-01T12:15:56.550Z,98539.09
2022-08-01T12:18:59.644Z,98540.06
2022-08-01T12:22:15.312Z,98547.66
2022-08-01T12:25:19.432Z,98545.44
2022-08-01T12:28:22.133Z,98537.94
2022-08-01T12:31:33.478Z,98543.91
2022-08-01T12:34:36.373Z,98542.00
2022-08-01T12:37:41.283Z,98545.47
2022-08-01T12:40:45.932Z,98547.72
2022-08-01T12:43:48.943Z,98538.75
2022-08-01T12:46:51.664Z,98548.63
2022-08-01T12:49:54.783Z,98539.56
2022-08-01T12:52:59.289Z,98537.47
2022-08-01T12:56:01.952Z,98541.59
2022-08-01T12:59:21.797Z,98540.66
2022-08-01T13:02:33.790Z,98535.91
2022-08-01T13:05:46.857Z,98532.53
2022-08-01T13:08:51.012Z,98530.41
2022-08-01T13:12:04.401Z,98521.41
2022-08-01T13:15:25.460Z,98520.72
2022-08-01T13:18:29.434Z,98534.75
2022-08-01T13:21:52.193Z,98537.25
2022-08-01T13:25:11.595Z,98516.69
2022-08-01T13:28:18.205Z,98528.88
2022-08-01T13:31:20.964Z,98530.47
2022-08-01T13:34:31.997Z,98523.81
2022-08-01T13:37:34.933Z,98507.03
2022-08-01T13:40:41.076Z,98521.91
2022-08-01T13:43:58.015Z,98510.69
2022-08-01T13:47:02.140Z,98511.47
2022-08-01T13:50:17.547Z,98515.16
2022-08-01T13:53:20.112Z,98505.53
2022-08-01T13:56:24.224Z,98508.22
2022-08-01T13:59:27.203Z,98506.78
2022-08-01T14:02:29.929Z,98508.34
2022-08-01T14:05:32.647Z,98501.28
2022-08-01T14:08:35.596Z,98508.22
2022-08-01T14:11:40.093Z,98510.75
2022-08-01T14:14:48.633Z,98510.94
2022-08-01T14:17:51.330Z,98501.72
2022-08-01T14:20:54.936Z,98498.22
2022-08-01T14:24:01.968Z,98487.47
2022-08-01T14:27:06.550Z,98493.03
2022-08-01T14:30:10.715Z,98492.56
2022-08-01T14:33:13.886Z,98479.59
2022-08-01T14:36:29.109Z,98492.91
2022-08-01T14:39:34.156Z,98481.84
2022-08-01T14:42:39.860Z,98491.81
2022-08-01T14:45:42.688Z,98490.75
2022-08-01T14:48:45.429Z,98492.28
2022-08-01T14:51:48.248Z,98502.81
2022-08-01T14:54:50.875Z,98499.88
2022-08-01T14:57:55.522Z,98501.78
2022-08-01T15:00:59.190Z,98504.47
2022-08-01T15:04:02.342Z,98492.16
2022-08-01T15:07:07.345Z,98484.53
2022-08-01T15:10:10.979Z,98487.88
2022-08-01T15:13:15.181Z,98488.06
2022-08-01T15:16:17.797Z,98495.38
2022-08-01T15:19:20.687Z,98502.22
2022-08-01T15:22:24.245Z,98497.19
2022-08-01T15:25:26.867Z,98500.09
2022-08-01T15:28:44.660Z,98495.25
2022-08-01T15:31:47.656Z,98493.75
2022-08-01T15:34:50.381Z,98494.56
2022-08-01T15:37:53.031Z,98486.16
2022-08-01T15:40:55.840Z,98495.69
2022-08-01T15:43:59.839Z,98496.91
2022-08-01T15:47:03.025Z,98494.34
2022-08-01T15:50:06.717Z,98495.06
2022-08-01T15:53:09.403Z,98503.13
2022-08-01T15:56:12.101Z,98499.25
2022-08-01T15:59:16.354Z,98500.94
2022-08-01T16:02:19.144Z,98495.66
2022-08-01T16:05:21.870Z,98498.25
2022-08-01T16:08:24.801Z,98494.28
2022-08-01T16:11:27.875Z,98489.31
2022-08-01T16:14:31.878Z,98500.53
2022-08-01T16:17:37.296Z,98500.09
2022-08-01T16:20:45.387Z,98491.81
2022-08-01T16:23:48.420Z,98488.38
2022-08-01T16:26:51.613Z,98496.41
2022-08-01T16:29:55.762Z,98494.56
2022-08-01T16:33:00.061Z,98495.13
2022-08-01T16:36:08.771Z,98498.28
2022-08-01T16:39:22.995Z,98496.19
2022-08-01T16:42:27.582Z,98499.69
2022-08-01T16:45:32.378Z,98493.72
2022-08-01T16:48:35.213Z,98503.09
2022-08-01T16:51:42.103Z,98498.25
2022-08-01T16:54:51.086Z,98497.63
2022-08-01T16:57:53.882Z,98502.50
2022-08-01T17:02:01.593Z,98498.81
2022-08-01T17:04:20.871Z,98498.09
2022-08-01T17:07:23.529Z,98510.38
2022-08-01T17:10:26.620Z,98515.75
2022-08-01T17:13:29.268Z,98520.19
2022-08-01T17:16:37.503Z,98527.84
2022-08-01T17:19:40.838Z,98528.03
2022-08-01T17:22:43.796Z,98526.19
2022-08-01T17:25:46.675Z,98525.47
2022-08-01T17:28:49.325Z,98532.31
2022-08-01T17:31:53.502Z,98526.81
2022-08-01T17:34:56.228Z,98530.25
2022-08-01T17:37:58.986Z,98536.13
2022-08-01T17:41:01.746Z,98537.94
2022-08-01T17:44:04.556Z,98535.34
2022-08-01T17:47:09.283Z,98537.44
2022-08-01T17:50:12.807Z,98543.81
2022-08-01T17:53:20.765Z,98547.25
2022-08-01T17:56:24.394Z,98551.63
2022-08-01T17:59:27.193Z,98549.16
2022-08-01T18:02:31.307Z,98548.81
2022-08-01T18:05:36.641Z,98552.91
2022-08-01T18:08:41.779Z,98560.75
2022-08-01T18:11:44.525Z,98557.94
2022-08-01T18:14:47.503Z,98562.81
2022-08-01T18:17:53.433Z,98566.75
2022-08-01T18:20:56.048Z,98565.75
2022-08-01T18:24:01.429Z,98567.56
2022-08-01T18:27:04.499Z,98570.06
2022-08-01T18:30:08.977Z,98564.34
2022-08-01T18:33:12.862Z,98571.47
2022-08-01T18:36:32.878Z,98569.50
2022-08-01T18:39:36.349Z,98561.19
2022-08-01T18:42:41.891Z,98567.72
2022-08-01T18:45:44.445Z,98571.50
2022-08-01T18:48:48.622Z,98570.09
2022-08-01T18:51:51.458Z,98569.78
2022-08-01T18:54:54.109Z,98581.44
2022-08-01T18:57:56.687Z,98573.53
2022-08-01T19:00:59.406Z,98579.25
2022-08-01T19:04:03.399Z,98586.50
2022-08-01T19:07:06.409Z,98600.94
2022-08-01T19:10:11.423Z,98606.50
2022-08-01T19:13:14.580Z,98608.91
2022-08-01T19:16:17.710Z,98604.22
2022-08-01T19:19:24.770Z,98607.97
2022-08-01T19:22:30.778Z,98601.94
2022-08-01T19:25:33.520Z,98609.53
2022-08-01T19:28:58.379Z,98597.31
2022-08-01T19:32:01.338Z,98608.50
2022-08-01T19:35:11.270Z,98615.13
2022-08-01T19:38:15.866Z,98619.88
2022-08-01T19:41:19.323Z,98623.47
2022-08-01T19:44:23.760Z,98637.47
2022-08-01T19:47:26.505Z,98649.03
2022-08-01T19:50:52.342Z,98649.34
2022-08-01T19:53:55.692Z,98664.50
2022-08-01T19:57:02.376Z,98675.31
2022-08-01T20:00:06.150Z,98680.41
2022-08-01T20:03:09.329Z,98686.50
2022-08-01T20:06:13.428Z,98692.13
2022-08-01T20:09:16.051Z,98685.25
2022-08-01T20:12:21.567Z,98696.94
2022-08-01T20:15:24.819Z,98694.66
2022-08-01T20:18:27.606Z,98700.69
2022-08-01T20:21:32.347Z,98703.47
2022-08-01T20:24:39.647Z,98708.28
2022-08-01T20:27:45.599Z,98708.69
2022-08-01T20:30:49.089Z,98703.50
2022-08-01T20:33:51.676Z,98694.78
2022-08-01T20:36:56.955Z,98692.03
2022-08-01T20:40:00.431Z,98697.16
2022-08-01T20:43:04.826Z,98706.31
2022-08-01T20:46:07.842Z,98699.53
2022-08-01T20:49:11.643Z,98697.50
2022-08-01T20:52:16.772Z,98705.84
2022-08-01T20:55:19.614Z,98714.63
2022-08-01T20:58:28.900Z,98719.03
2022-08-01T21:01:35.280Z,98711.88
2022-08-01T21:04:43.918Z,98726.59
2022-08-01T21:07:51.485Z,98736.53
2022-08-01T21:10:57.322Z,98746.09
2022-08-01T21:14:02.211Z,98755.66
2022-08-01T21:17:08.735Z,98753.69
2022-08-01T21:20:13.951Z,98748.50
2022-08-01T21:23:23.067Z,98751.28
2022-08-01T21:26:26.542Z,98748.09
2022-08-01T21:29:29.963Z,98746.47
2022-08-01T21:32:33.956Z,98757.63
2022-08-01T21:35:37.878Z,98751.22
2022-08-01T21:38:43.709Z,98762.72
2022-08-01T21:41:56.634Z,98752.81
2022-08-01T21:45:10.538Z,98752.78
2022-08-01T21:48:14.629Z,98754.38
2022-08-01T21:51:37.180Z,98749.09
2022-08-01T21:54:58.686Z,98754.25
2022-08-01T21:58:19.799Z,98753.75
2022-08-01T22:01:28.696Z,98761.06
2022-08-01T22:04:38.880Z,98752.84
2022-08-01T22:07:44.666Z,98753.53
2022-08-01T22:10:50.209Z,98747.66
2022-08-01T22:13:55.069Z,98744.06
2022-08-01T22:16:58.720Z,98739.97
2022-08-01T22:20:02.098Z,98738.28
2022-08-01T22:23:06.620Z,98755.69
2022-08-01T22:26:11.824Z,98757.22
2022-08-01T22:29:14.727Z,98763.56
2022-08-01T22:32:17.757Z,98762.72
2022-08-01T22:35:20.536Z,98755.81
2022-08-01T22:38:24.958Z,98766.34
2022-08-01T22:42:01.845Z,98768.31
2022-08-01T22:45:00.689Z,98770.69
2022-08-01T22:48:16.437Z,98774.16
2022-08-01T22:51:28.267Z,98770.06
2022-08-01T22:54:37.045Z,98775.53
2022-08-01T22:57:54.956Z,98777.97
2022-08-01T23:01:01.121Z,98783.94
2022-08-01T23:04:04.129Z,98785.16
2022-08-01T23:07:07.917Z,98792.53
2022-08-01T23:10:11.031Z,98783.75
2022-08-01T23:13:16.067Z,98777.78
2022-08-01T23:16:19.345Z,98780.19
2022-08-01T23:19:22.041Z,98777.94
2022-08-01T23:22:25.140Z,98774.78
2022-08-01T23:25:27.637Z,98767.38
2022-08-01T23:28:31.722Z,98761.38
2022-08-01T23:32:10.658Z,98753.47
2022-08-01T23:34:57.168Z,98739.84
2022-08-01T23:38:02.810Z,98745.25
2022-08-01T23:41:14.817Z,98748.50
2022-08-01T23:44:18.831Z,98753.78
2022-08-01T23:47:21.515Z,98750.75
2022-08-01T23:50:24.510Z,98755.09
2022-08-01T23:53:31.474Z,98743.44
2022-08-01T23:56:34.165Z,98740.22
2022-08-01T23:59:52.500Z,98742.59
